This is the latest recevied weather packets stored in our database for station/object SQ5RTW-1. If no packets are shown the sender has not sent any weather packets the latest 1 day(s).
| Time | Temp. | Humidity | Pressure | Rain* | Wind** | Luminosity | Snow |
|---|---|---|---|---|---|---|---|
| 1778086645 | 29.44° C | 34% | 1008 hPa | - | - | - | - |
| 1778083027 | 28.89° C | 36% | 1008.1 hPa | - | - | - | - |
| 1778082126 | 32.78° C | 30% | 1008.3 hPa | - | - | - | - |
| 1778080324 | 31.11° C | 33% | 1008.3 hPa | - | - | - | - |
| 1778078508 | 28.33° C | 37% | 1008 hPa | - | - | - | - |
| 1778077607 | 31.67° C | 31% | 1008.4 hPa | - | - | - | - |
| 1778076706 | 25.56° C | 44% | 1008.1 hPa | - | - | - | - |
| 1778074904 | 26.11° C | 45% | 1008 hPa | - | - | - | - |
| 1778073989 | 29.44° C | 35% | 1008 hPa | - | - | - | - |
| 1778073088 | 27.78° C | 39% | 1007.9 hPa | - | - | - | - |
| 1778072187 | 27.22° C | 40% | 1007.8 hPa | - | - | - | - |
| 1778071286 | 27.78° C | 42% | 1008 hPa | - | - | - | - |
| 1778071271 | 26.11° C | 43% | 1008 hPa | - | - | - | - |
| 1778068569 | 26.11° C | 44% | 1007.9 hPa | - | - | - | - |
| 1778064050 | 25° C | 40% | 1007.6 hPa | - | - | - | - |
| 1778062248 | 25.56° C | 39% | 1007.8 hPa | - | - | - | - |
| 1778061347 | 27.22° C | 37% | 1007.7 hPa | - | - | - | - |
| 1778060446 | 24.44° C | 41% | 1008 hPa | - | - | - | - |
| 1778057729 | 24.44° C | 41% | 1008 hPa | - | - | - | - |
| 1778056828 | 25.56° C | 39% | 1007.9 hPa | - | - | - | - |
| 1778055927 | 26.67° C | 39% | 1007.9 hPa | - | - | - | - |
| 1778052323 | 24.44° C | 51% | 1008.4 hPa | - | - | - | - |
| 1778050876 | 20.56° C | 58% | 1008.3 hPa | - | - | - | - |
| 1778049975 | 18.89° C | 66% | 1008.5 hPa | - | - | - | - |
| 1778049060 | 16.67° C | 69% | 1008.6 hPa | - | - | - | - |
* Rain since midnight (hover to see other rain measurements)
** Current wind speed in m/s (hover to see current wind gust speed)